createdAt,value
2018-04-20T00:00:43.807Z,2.7
2018-04-20T00:01:43.478Z,2.4
2018-04-20T00:02:43.281Z,2.4
2018-04-20T00:03:43.482Z,2.5
2018-04-20T00:04:43.309Z,2.4
2018-04-20T00:05:43.351Z,2.4
2018-04-20T00:06:43.742Z,2.6
2018-04-20T00:07:43.536Z,2.6
2018-04-20T00:08:43.338Z,2.3
2018-04-20T00:09:43.336Z,2.4
2018-04-20T00:10:43.754Z,2.5
2018-04-20T00:11:43.353Z,2.4
2018-04-20T00:12:43.843Z,2.5
2018-04-20T00:13:43.526Z,2.3
2018-04-20T00:14:43.366Z,2.4
2018-04-20T00:15:43.455Z,2.2
2018-04-20T00:16:43.333Z,2.4
2018-04-20T00:17:43.393Z,2.2
2018-04-20T00:18:43.353Z,2.4
2018-04-20T00:19:43.477Z,2.4
2018-04-20T00:20:43.837Z,2.3
2018-04-20T00:21:43.794Z,2.5
2018-04-20T00:22:43.554Z,2.2
2018-04-20T00:23:43.553Z,2.2
2018-04-20T00:24:43.839Z,2.4
2018-04-20T00:25:43.546Z,2.2
2018-04-20T00:26:43.863Z,2.4
2018-04-20T00:27:43.836Z,2.4
2018-04-20T00:28:43.807Z,2.2
2018-04-20T00:29:43.567Z,2.2
2018-04-20T00:30:43.837Z,2.3
2018-04-20T00:31:43.855Z,2.3
2018-04-20T00:32:43.776Z,2.3
2018-04-20T00:33:43.360Z,2.1
2018-04-20T00:34:43.386Z,2.3
2018-04-20T00:35:43.371Z,2.4
2018-04-20T00:36:43.817Z,2.3
2018-04-20T00:37:43.542Z,2.1
2018-04-20T00:38:43.811Z,2.1
2018-04-20T00:39:47.862Z,2.4
2018-04-20T00:40:43.414Z,2.2
2018-04-20T00:41:43.407Z,2.2
2018-04-20T00:42:43.425Z,2.4
2018-04-20T00:43:43.664Z,2.4
2018-04-20T00:44:43.406Z,2.1
2018-04-20T00:45:43.851Z,2.4
2018-04-20T00:46:43.649Z,2.2
2018-04-20T00:47:43.759Z,2.3
2018-04-20T00:48:43.428Z,2.0
2018-04-20T00:49:43.873Z,2.3
2018-04-20T00:50:43.427Z,2.3
2018-04-20T00:51:43.376Z,2.4
2018-04-20T00:52:43.443Z,2.2
2018-04-20T00:53:43.555Z,1.8
2018-04-20T00:54:43.605Z,2.4
2018-04-20T00:55:43.590Z,2.2
2018-04-20T00:56:43.423Z,2.0
2018-04-20T00:57:43.848Z,2.3
2018-04-20T00:58:43.641Z,2.2
2018-04-20T00:59:43.855Z,2.1
2018-04-20T01:00:43.588Z,2.2
2018-04-20T01:01:43.600Z,2.4
2018-04-20T01:02:43.429Z,2.1
2018-04-20T01:03:43.894Z,2.2
2018-04-20T01:04:43.584Z,2.3
2018-04-20T01:05:43.910Z,2.2
2018-04-20T01:06:43.876Z,2.2
2018-04-20T01:07:43.414Z,2.3
2018-04-20T01:08:43.440Z,2.2
2018-04-20T01:09:44.613Z,2.3
2018-04-20T01:10:43.855Z,2.1
2018-04-20T01:11:43.610Z,2.1
2018-04-20T01:12:43.471Z,2.0
2018-04-20T01:13:43.640Z,2.1
2018-04-20T01:14:43.619Z,2.0
2018-04-20T01:15:43.927Z,2.0
2018-04-20T01:16:43.914Z,2.1
2018-04-20T01:17:43.654Z,2.0
2018-04-20T01:18:43.493Z,2.2
2018-04-20T01:19:43.926Z,2.1
2018-04-20T01:20:43.915Z,2.1
2018-04-20T01:21:43.647Z,2.2
2018-04-20T01:22:43.489Z,2.3
2018-04-20T01:23:43.927Z,2.0
2018-04-20T01:24:43.952Z,2.0
2018-04-20T01:25:43.892Z,2.0
2018-04-20T01:26:43.913Z,2.2
2018-04-20T01:27:43.938Z,2.0
2018-04-20T01:28:43.608Z,1.9
2018-04-20T01:29:43.892Z,1.9
2018-04-20T01:30:43.499Z,2.2
2018-04-20T01:31:43.945Z,2.0
2018-04-20T01:32:43.681Z,1.9
2018-04-20T01:33:43.493Z,1.9
2018-04-20T01:34:43.633Z,2.1
2018-04-20T01:35:43.928Z,2.1
2018-04-20T01:36:43.948Z,2.2
2018-04-20T01:37:43.454Z,2.1
2018-04-20T01:38:43.963Z,2.0
2018-04-20T01:39:43.650Z,2.0
2018-04-20T01:40:48.579Z,2.1
2018-04-20T01:41:44.637Z,2.0
2018-04-20T01:42:43.659Z,1.9
2018-04-20T01:43:43.544Z,2.0
2018-04-20T01:44:43.705Z,2.0
2018-04-20T01:45:43.548Z,1.7
2018-04-20T01:46:43.941Z,2.1
2018-04-20T01:47:43.915Z,2.0
2018-04-20T01:48:43.661Z,2.1
2018-04-20T01:49:43.973Z,2.0
2018-04-20T01:50:43.929Z,2.1
2018-04-20T01:51:43.701Z,1.9
2018-04-20T01:52:43.954Z,2.2
2018-04-20T01:53:43.519Z,2.1
2018-04-20T01:54:43.514Z,2.1
2018-04-20T01:55:43.574Z,2.0
2018-04-20T01:56:43.988Z,2.0
2018-04-20T01:57:43.552Z,2.0
2018-04-20T01:58:43.724Z,2.0
2018-04-20T01:59:43.989Z,1.9
2018-04-20T02:00:43.544Z,2.0
2018-04-20T02:01:43.790Z,1.9
2018-04-20T02:02:43.547Z,2.2
2018-04-20T02:03:44.017Z,2.0
2018-04-20T02:04:43.682Z,2.1
2018-04-20T02:05:43.986Z,2.2
2018-04-20T02:06:43.763Z,2.1
2018-04-20T02:07:44.027Z,2.0
2018-04-20T02:08:43.988Z,2.0
2018-04-20T02:09:43.932Z,2.0
2018-04-20T02:10:43.615Z,1.9
2018-04-20T02:11:43.785Z,2.0
2018-04-20T02:12:43.974Z,2.2
2018-04-20T02:13:43.736Z,2.0
2018-04-20T02:14:44.002Z,2.0
2018-04-20T02:15:44.044Z,2.0
2018-04-20T02:16:44.054Z,1.9
2018-04-20T02:17:44.010Z,1.9
2018-04-20T02:18:44.038Z,2.1
2018-04-20T02:19:43.602Z,2.0
2018-04-20T02:20:44.029Z,2.0
2018-04-20T02:21:43.737Z,1.9
2018-04-20T02:22:43.962Z,2.1
2018-04-20T02:23:43.597Z,2.0
2018-04-20T02:24:44.008Z,2.0
2018-04-20T02:25:43.601Z,1.8
2018-04-20T02:26:43.742Z,1.9
2018-04-20T02:27:43.619Z,2.0
2018-04-20T02:28:43.606Z,2.0
2018-04-20T02:29:44.012Z,1.9
2018-04-20T02:30:43.651Z,1.9
2018-04-20T02:31:43.757Z,1.8
2018-04-20T02:32:44.093Z,2.0
2018-04-20T02:33:43.607Z,2.1
2018-04-20T02:34:43.836Z,2.0
2018-04-20T02:35:43.761Z,1.8
2018-04-20T02:36:44.040Z,1.9
2018-04-20T02:37:44.055Z,1.9
2018-04-20T02:38:43.638Z,1.8
2018-04-20T02:39:44.013Z,1.9
2018-04-20T02:40:44.061Z,1.8
2018-04-20T02:41:48.560Z,1.9
2018-04-20T02:42:44.152Z,1.9
2018-04-20T02:43:44.096Z,1.8
2018-04-20T02:44:44.085Z,1.8
2018-04-20T02:45:44.052Z,2.0
2018-04-20T02:46:44.059Z,1.8
2018-04-20T02:47:44.005Z,1.9
2018-04-20T02:48:44.048Z,1.9
2018-04-20T02:49:44.098Z,1.9
2018-04-20T02:50:44.061Z,1.9
2018-04-20T02:51:44.096Z,2.0
2018-04-20T02:52:44.084Z,2.0
2018-04-20T02:53:43.658Z,2.1
2018-04-20T02:54:44.058Z,2.1
2018-04-20T02:55:44.082Z,2.0
2018-04-20T02:56:44.105Z,2.0
2018-04-20T02:57:44.068Z,2.4
2018-04-20T02:58:44.141Z,2.2
2018-04-20T02:59:44.088Z,2.1
2018-04-20T03:00:43.678Z,2.1
2018-04-20T03:01:43.850Z,2.5
2018-04-20T03:02:44.122Z,2.5
2018-04-20T03:03:43.746Z,2.5
2018-04-20T03:04:44.077Z,2.4
2018-04-20T03:05:44.039Z,2.4
2018-04-20T03:06:44.127Z,2.2
2018-04-20T03:07:44.136Z,2.2
2018-04-20T03:08:44.210Z,2.1
2018-04-20T03:09:44.219Z,2.3
2018-04-20T03:10:44.145Z,2.2
2018-04-20T03:11:44.186Z,2.2
2018-04-20T03:12:43.889Z,2.3
2018-04-20T03:13:44.109Z,2.3
2018-04-20T03:14:44.116Z,2.4
2018-04-20T03:15:44.122Z,2.3
2018-04-20T03:16:44.146Z,2.4
2018-04-20T03:17:44.121Z,2.3
2018-04-20T03:18:44.157Z,2.3
2018-04-20T03:19:43.704Z,2.4
2018-04-20T03:20:44.117Z,2.2
2018-04-20T03:21:44.162Z,2.3
2018-04-20T03:22:43.683Z,2.3
2018-04-20T03:23:43.727Z,2.0
2018-04-20T03:24:44.122Z,2.2
2018-04-20T03:25:43.680Z,2.3
2018-04-20T03:26:44.204Z,2.3
2018-04-20T03:27:43.779Z,2.2
2018-04-20T03:28:44.217Z,2.2
2018-04-20T03:29:43.737Z,2.4
2018-04-20T03:30:43.887Z,2.3
2018-04-20T03:31:44.183Z,2.4
2018-04-20T03:32:44.166Z,2.3
2018-04-20T03:33:43.932Z,2.3
2018-04-20T03:34:43.724Z,2.4
2018-04-20T03:35:43.916Z,2.2
2018-04-20T03:36:43.713Z,2.2
2018-04-20T03:37:44.192Z,2.0
2018-04-20T03:38:43.753Z,2.2
2018-04-20T03:39:43.761Z,2.3
2018-04-20T03:40:43.743Z,2.2
2018-04-20T03:41:44.260Z,2.4
2018-04-20T03:42:49.169Z,2.3
2018-04-20T03:43:43.718Z,2.3
2018-04-20T03:44:43.760Z,2.3
2018-04-20T03:45:44.214Z,2.4
2018-04-20T03:46:43.774Z,2.2
2018-04-20T03:47:43.926Z,2.4
2018-04-20T03:48:43.986Z,2.1
2018-04-20T03:49:44.186Z,2.2
2018-04-20T03:50:44.229Z,2.2
2018-04-20T03:51:44.178Z,2.5
2018-04-20T03:52:44.238Z,2.2
2018-04-20T03:53:44.185Z,2.1
2018-04-20T03:54:44.180Z,2.0
2018-04-20T03:55:43.911Z,2.4
2018-04-20T03:56:44.193Z,2.3
2018-04-20T03:57:44.190Z,2.2
2018-04-20T03:58:43.832Z,2.1
2018-04-20T03:59:43.787Z,2.2
2018-04-20T04:00:44.234Z,2.2
2018-04-20T04:01:43.951Z,2.4
2018-04-20T04:02:44.216Z,2.0
2018-04-20T04:03:44.219Z,2.3
2018-04-20T04:04:43.747Z,2.2
2018-04-20T04:05:44.171Z,2.2
2018-04-20T04:06:44.212Z,2.0
2018-04-20T04:07:44.203Z,2.3
2018-04-20T04:08:44.258Z,2.1
2018-04-20T04:09:44.171Z,2.2
2018-04-20T04:10:44.295Z,2.3
2018-04-20T04:11:43.958Z,2.3
2018-04-20T04:12:43.795Z,2.0
2018-04-20T04:13:43.980Z,2.1
2018-04-20T04:14:43.988Z,2.0
2018-04-20T04:15:44.211Z,2.0
2018-04-20T04:16:44.253Z,2.2
2018-04-20T04:17:44.008Z,2.3
2018-04-20T04:18:44.013Z,2.2
2018-04-20T04:19:44.221Z,2.2
2018-04-20T04:20:44.009Z,2.2
2018-04-20T04:21:43.824Z,2.3
2018-04-20T04:22:44.226Z,2.2
2018-04-20T04:23:44.001Z,2.3
2018-04-20T04:24:44.294Z,2.2
2018-04-20T04:25:43.843Z,2.2
2018-04-20T04:26:44.002Z,2.2
2018-04-20T04:27:44.309Z,2.2
2018-04-20T04:28:44.265Z,2.2
2018-04-20T04:29:44.247Z,2.1
2018-04-20T04:30:44.212Z,2.2
2018-04-20T04:31:44.274Z,2.4
2018-04-20T04:32:44.285Z,2.2
2018-04-20T04:33:44.286Z,2.2
2018-04-20T04:34:44.268Z,2.1
2018-04-20T04:35:43.799Z,2.4
2018-04-20T04:36:44.288Z,2.3
2018-04-20T04:37:44.239Z,2.2
2018-04-20T04:38:43.985Z,2.2
2018-04-20T04:39:44.275Z,2.0
2018-04-20T04:40:43.800Z,2.1
2018-04-20T04:41:44.019Z,2.1
2018-04-20T04:42:44.290Z,2.0
2018-04-20T04:43:49.804Z,2.3
2018-04-20T04:44:43.852Z,2.3
2018-04-20T04:45:44.052Z,2.3
2018-04-20T04:46:44.222Z,2.0
2018-04-20T04:47:44.281Z,2.3
2018-04-20T04:48:44.298Z,2.1
2018-04-20T04:49:43.907Z,2.5
2018-04-20T04:50:43.873Z,2.2
2018-04-20T04:51:44.026Z,2.3
2018-04-20T04:52:44.280Z,2.1
2018-04-20T04:53:44.281Z,2.2
2018-04-20T04:54:44.088Z,2.0
2018-04-20T04:55:43.867Z,2.2
2018-04-20T04:56:43.868Z,2.3
2018-04-20T04:57:44.314Z,2.4
2018-04-20T04:58:44.400Z,2.0
2018-04-20T04:59:44.097Z,2.2
2018-04-20T05:00:44.348Z,2.3
2018-04-20T05:01:43.856Z,2.2
2018-04-20T05:02:44.289Z,2.2
2018-04-20T05:03:44.070Z,2.1
2018-04-20T05:04:44.083Z,2.1
2018-04-20T05:05:44.299Z,2.4
2018-04-20T05:06:44.325Z,2.3
2018-04-20T05:07:44.110Z,2.2
2018-04-20T05:08:44.336Z,2.4
2018-04-20T05:09:44.332Z,2.4
2018-04-20T05:10:44.341Z,2.5
2018-04-20T05:11:44.402Z,2.5
2018-04-20T05:12:44.348Z,2.3
2018-04-20T05:13:44.288Z,2.2
2018-04-20T05:14:44.403Z,2.3
2018-04-20T05:15:43.940Z,2.6
2018-04-20T05:16:44.047Z,2.3
2018-04-20T05:17:44.339Z,2.3
2018-04-20T05:18:44.079Z,2.4
2018-04-20T05:19:44.354Z,2.5
2018-04-20T05:20:43.886Z,2.3
2018-04-20T05:21:44.039Z,2.3
2018-04-20T05:22:43.867Z,2.3
2018-04-20T05:23:43.884Z,2.5
2018-04-20T05:24:44.384Z,2.4
2018-04-20T05:25:44.349Z,2.6
2018-04-20T05:26:44.099Z,2.5
2018-04-20T05:27:44.443Z,2.8
2018-04-20T05:28:43.844Z,2.3
2018-04-20T05:29:44.113Z,2.5
2018-04-20T05:30:44.371Z,2.5
2018-04-20T05:31:44.327Z,2.5
2018-04-20T05:32:44.387Z,2.7
2018-04-20T05:33:44.333Z,2.5
2018-04-20T05:34:44.501Z,2.8
2018-04-20T05:35:44.398Z,2.7
2018-04-20T05:36:44.351Z,2.9
2018-04-20T05:37:43.958Z,2.8
2018-04-20T05:38:44.375Z,2.8
2018-04-20T05:39:44.207Z,2.8
2018-04-20T05:40:44.173Z,2.6
2018-04-20T05:41:43.929Z,2.7
2018-04-20T05:42:43.917Z,2.4
2018-04-20T05:43:44.111Z,2.5
2018-04-20T05:44:45.068Z,2.6
2018-04-20T05:45:44.403Z,2.9
2018-04-20T05:46:44.481Z,2.4
2018-04-20T05:47:44.421Z,2.6
2018-04-20T05:48:44.467Z,2.8
2018-04-20T05:49:44.032Z,2.8
2018-04-20T05:50:44.374Z,2.7
2018-04-20T05:51:44.389Z,2.7
2018-04-20T05:52:44.380Z,2.6
2018-04-20T05:53:44.169Z,2.8
2018-04-20T05:54:44.431Z,2.6
2018-04-20T05:55:44.233Z,2.5
2018-04-20T05:56:44.180Z,2.6
2018-04-20T05:57:44.438Z,2.6
2018-04-20T05:58:44.411Z,2.7
2018-04-20T05:59:44.006Z,2.4
2018-04-20T06:00:44.369Z,2.6
2018-04-20T06:01:44.487Z,2.7
2018-04-20T06:02:43.998Z,2.6
2018-04-20T06:03:44.440Z,2.5
2018-04-20T06:04:44.478Z,2.6
2018-04-20T06:05:43.998Z,2.7
2018-04-20T06:06:44.399Z,2.6
2018-04-20T06:07:44.384Z,2.8
2018-04-20T06:08:44.179Z,2.7
2018-04-20T06:09:44.535Z,3.1
2018-04-20T06:10:44.502Z,3.1
2018-04-20T06:11:44.470Z,3.7
2018-04-20T06:12:44.429Z,4.2
2018-04-20T06:13:44.402Z,4.6
2018-04-20T06:14:44.700Z,5.2
2018-04-20T06:15:44.076Z,5.2
2018-04-20T06:16:44.229Z,5.6
2018-04-20T06:17:44.001Z,5.6
2018-04-20T06:18:44.439Z,6.4
2018-04-20T06:19:44.171Z,6.5
2018-04-20T06:20:44.512Z,7.0
2018-04-20T06:21:44.423Z,6.9
2018-04-20T06:22:44.427Z,6.9
2018-04-20T06:23:44.412Z,6.8
2018-04-20T06:24:44.162Z,6.8
2018-04-20T06:25:44.215Z,6.3
2018-04-20T06:26:44.476Z,6.7
2018-04-20T06:27:44.470Z,7.0
2018-04-20T06:28:44.151Z,6.8
2018-04-20T06:29:44.008Z,6.8
2018-04-20T06:30:44.474Z,6.8
2018-04-20T06:31:44.448Z,6.4
2018-04-20T06:32:44.432Z,7.2
2018-04-20T06:33:44.169Z,6.6
2018-04-20T06:34:44.484Z,7.1
2018-04-20T06:35:44.462Z,6.8
2018-04-20T06:36:44.463Z,6.7
2018-04-20T06:37:44.176Z,6.7
2018-04-20T06:38:44.022Z,7.1
2018-04-20T06:39:44.504Z,7.4
2018-04-20T06:40:44.538Z,7.1
2018-04-20T06:41:44.550Z,7.0
2018-04-20T06:42:44.488Z,7.6
2018-04-20T06:43:44.452Z,7.4
2018-04-20T06:44:44.248Z,7.1
2018-04-20T06:45:45.361Z,7.2
2018-04-20T06:46:44.036Z,7.0
2018-04-20T06:47:44.450Z,8.7
2018-04-20T06:48:44.440Z,11.6
2018-04-20T06:49:44.057Z,14.1
2018-04-20T06:50:44.080Z,13.6
2018-04-20T06:51:44.526Z,14.2
2018-04-20T06:52:44.438Z,13.5
2018-04-20T06:53:44.531Z,13.5
2018-04-20T06:54:44.187Z,11.9
2018-04-20T06:55:44.458Z,12.1
2018-04-20T06:56:44.581Z,11.7
2018-04-20T06:57:44.452Z,12.2
2018-04-20T06:58:44.027Z,10.8
2018-04-20T06:59:44.254Z,11.6
2018-04-20T07:00:44.106Z,11.3
2018-04-20T07:01:44.215Z,10.9
2018-04-20T07:02:44.109Z,11.0
2018-04-20T07:03:44.284Z,11.0
2018-04-20T07:04:44.549Z,11.0
2018-04-20T07:05:44.530Z,11.1
2018-04-20T07:06:44.527Z,10.1
2018-04-20T07:07:44.430Z,10.4
2018-04-20T07:08:44.077Z,10.1
2018-04-20T07:09:44.065Z,9.8
2018-04-20T07:10:44.115Z,9.9
2018-04-20T07:11:44.090Z,9.8
2018-04-20T07:12:44.246Z,9.4
2018-04-20T07:13:44.516Z,9.6
2018-04-20T07:14:44.509Z,8.9
2018-04-20T07:15:44.114Z,9.2
2018-04-20T07:16:44.508Z,9.2
2018-04-20T07:17:44.229Z,8.8
2018-04-20T07:18:44.119Z,8.8
2018-04-20T07:19:44.089Z,8.7
2018-04-20T07:20:44.546Z,9.2
2018-04-20T07:21:44.101Z,8.6
2018-04-20T07:22:44.083Z,8.5
2018-04-20T07:23:44.059Z,9.0
2018-04-20T07:24:44.515Z,8.2
2018-04-20T07:25:44.565Z,8.6
2018-04-20T07:26:44.273Z,8.3
2018-04-20T07:27:44.312Z,8.7
2018-04-20T07:28:44.157Z,7.8
2018-04-20T07:29:44.291Z,8.1
2018-04-20T07:30:44.613Z,8.2
2018-04-20T07:31:44.150Z,8.0
2018-04-20T07:32:44.310Z,8.6
2018-04-20T07:33:44.629Z,8.2
2018-04-20T07:34:44.103Z,7.8
2018-04-20T07:35:44.646Z,8.0
2018-04-20T07:36:44.131Z,7.9
2018-04-20T07:37:44.102Z,7.9
2018-04-20T07:38:44.563Z,7.6
2018-04-20T07:39:44.343Z,7.4
2018-04-20T07:40:44.359Z,7.5
2018-04-20T07:41:44.297Z,7.7
2018-04-20T07:42:44.129Z,7.7
2018-04-20T07:43:44.510Z,7.3
2018-04-20T07:44:44.173Z,7.6
2018-04-20T07:45:44.345Z,7.3
2018-04-20T07:46:45.502Z,7.8
2018-04-20T07:47:44.160Z,7.6
2018-04-20T07:48:44.676Z,7.4
2018-04-20T07:49:44.587Z,7.5
2018-04-20T07:50:44.649Z,7.4
2018-04-20T07:51:44.351Z,7.4
2018-04-20T07:52:44.625Z,7.2
2018-04-20T07:53:44.599Z,7.6
2018-04-20T07:54:44.268Z,7.4
2018-04-20T07:55:44.371Z,7.0
2018-04-20T07:56:44.172Z,7.2
2018-04-20T07:57:44.584Z,7.2
2018-04-20T07:58:44.189Z,6.7
2018-04-20T07:59:44.334Z,7.2
2018-04-20T08:00:44.192Z,7.0
2018-04-20T08:01:44.349Z,6.9
2018-04-20T08:02:44.343Z,7.2
2018-04-20T08:03:44.396Z,6.9
2018-04-20T08:04:44.166Z,7.0
2018-04-20T08:05:44.364Z,7.2
2018-04-20T08:06:44.639Z,7.0
2018-04-20T08:07:44.247Z,7.1
2018-04-20T08:08:44.351Z,6.6
2018-04-20T08:09:44.230Z,6.5
2018-04-20T08:10:44.612Z,7.2
2018-04-20T08:11:44.426Z,6.6
2018-04-20T08:12:44.627Z,6.4
2018-04-20T08:13:44.387Z,6.7
2018-04-20T08:14:44.184Z,6.8
2018-04-20T08:15:44.184Z,6.9
2018-04-20T08:16:44.673Z,6.6
2018-04-20T08:17:44.395Z,6.6
2018-04-20T08:18:44.639Z,6.8
2018-04-20T08:19:44.584Z,6.6
2018-04-20T08:20:44.705Z,6.3
2018-04-20T08:21:44.661Z,6.6
2018-04-20T08:22:44.206Z,6.3
2018-04-20T08:23:44.700Z,6.5
2018-04-20T08:24:44.214Z,6.8
2018-04-20T08:25:44.437Z,6.1
2018-04-20T08:26:44.399Z,6.4
2018-04-20T08:27:44.233Z,6.5
2018-04-20T08:28:44.387Z,5.8
2018-04-20T08:29:44.710Z,6.1
2018-04-20T08:30:46.117Z,6.3
2018-04-20T08:31:44.819Z,6.1
2018-04-20T08:32:44.815Z,5.8
2018-04-20T08:33:44.588Z,5.8
2018-04-20T08:34:44.265Z,5.4
2018-04-20T08:35:44.757Z,5.8
2018-04-20T08:36:44.723Z,5.2
2018-04-20T08:37:44.872Z,5.1
2018-04-20T08:38:44.441Z,5.1
2018-04-20T08:39:44.255Z,4.8
2018-04-20T08:40:44.673Z,5.2
2018-04-20T08:41:44.272Z,5.2
2018-04-20T08:42:44.657Z,5.2
2018-04-20T08:43:44.706Z,5.2
2018-04-20T08:44:44.380Z,5.2
2018-04-20T08:45:44.290Z,4.6
2018-04-20T08:46:44.659Z,4.8
2018-04-20T08:47:45.648Z,4.2
2018-04-20T08:48:44.400Z,5.2
2018-04-20T08:49:44.661Z,4.6
2018-04-20T08:50:44.716Z,4.5
2018-04-20T08:51:44.712Z,4.5
2018-04-20T08:52:44.746Z,4.6
2018-04-20T08:53:44.690Z,4.4
2018-04-20T08:54:44.286Z,4.4
2018-04-20T08:55:44.697Z,4.5
2018-04-20T08:56:44.691Z,4.3
2018-04-20T08:57:44.872Z,4.6
2018-04-20T08:58:44.725Z,4.3
2018-04-20T08:59:44.674Z,4.5
2018-04-20T09:00:44.700Z,4.6
2018-04-20T09:01:44.713Z,4.6
2018-04-20T09:02:44.459Z,4.8
2018-04-20T09:03:44.461Z,4.7
2018-04-20T09:04:44.708Z,4.5
2018-04-20T09:05:44.730Z,4.6
2018-04-20T09:06:44.541Z,4.3
2018-04-20T09:07:47.120Z,4.6
2018-04-20T09:08:44.806Z,4.5
2018-04-20T09:09:44.246Z,4.6
2018-04-20T09:10:44.467Z,4.6
2018-04-20T09:11:44.775Z,4.3
2018-04-20T09:12:44.704Z,4.6
2018-04-20T09:13:44.669Z,4.3
2018-04-20T09:14:44.778Z,4.3
2018-04-20T09:15:44.775Z,4.4
2018-04-20T09:16:44.471Z,4.2
2018-04-20T09:17:44.515Z,4.2
2018-04-20T09:18:44.530Z,4.0
2018-04-20T09:19:44.508Z,4.2
2018-04-20T09:20:44.379Z,3.8
2018-04-20T09:21:44.728Z,3.7
2018-04-20T09:22:44.516Z,4.3
2018-04-20T09:23:44.800Z,4.1
2018-04-20T09:24:44.791Z,4.2
2018-04-20T09:25:44.784Z,4.0
2018-04-20T09:26:44.759Z,4.1
2018-04-20T09:27:44.588Z,3.9
2018-04-20T09:28:44.581Z,4.0
2018-04-20T09:29:44.766Z,3.9
2018-04-20T09:30:44.347Z,3.9
2018-04-20T09:31:44.434Z,4.0
2018-04-20T09:32:44.339Z,3.8
2018-04-20T09:33:44.414Z,4.0
2018-04-20T09:34:44.812Z,3.8
2018-04-20T09:35:44.746Z,3.6
2018-04-20T09:36:44.484Z,4.0
2018-04-20T09:37:44.349Z,3.5
2018-04-20T09:38:44.551Z,3.7
2018-04-20T09:39:44.819Z,3.6
2018-04-20T09:40:44.504Z,3.6
2018-04-20T09:41:44.771Z,3.6
2018-04-20T09:42:44.816Z,3.5
2018-04-20T09:43:44.528Z,3.6
2018-04-20T09:44:44.415Z,3.1
2018-04-20T09:45:44.822Z,3.5
2018-04-20T09:46:44.817Z,3.4
2018-04-20T09:47:44.844Z,3.5
2018-04-20T09:48:45.572Z,3.3
2018-04-20T09:49:44.813Z,3.6
2018-04-20T09:50:44.422Z,3.4
2018-04-20T09:51:44.833Z,3.4
2018-04-20T09:52:44.798Z,3.5
2018-04-20T09:53:44.799Z,3.3
2018-04-20T09:54:44.848Z,3.2
2018-04-20T09:55:44.837Z,3.7
2018-04-20T09:56:44.875Z,3.4
2018-04-20T09:57:44.631Z,3.5
2018-04-20T09:58:44.823Z,3.5
2018-04-20T09:59:44.457Z,3.4
2018-04-20T10:01:44.381Z,3.4
2018-04-20T10:02:44.781Z,3.2
2018-04-20T10:03:44.379Z,3.3
2018-04-20T10:04:44.843Z,3.3
2018-04-20T10:05:44.418Z,3.4
2018-04-20T10:06:44.409Z,3.0
2018-04-20T10:07:44.459Z,2.9
2018-04-20T10:08:44.830Z,3.1
2018-04-20T10:09:44.360Z,3.4
2018-04-20T10:10:44.397Z,3.0
2018-04-20T10:11:44.572Z,3.4
2018-04-20T10:12:44.381Z,2.9
2018-04-20T10:13:44.842Z,2.9
2018-04-20T10:14:44.603Z,3.2
2018-04-20T10:15:44.610Z,3.1
2018-04-20T10:16:44.828Z,3.0
2018-04-20T10:17:44.864Z,3.1
2018-04-20T10:18:44.852Z,3.4
2018-04-20T10:19:44.389Z,3.6
2018-04-20T10:20:44.806Z,3.2
2018-04-20T10:21:44.569Z,3.6
2018-04-20T10:22:44.649Z,3.6
2018-04-20T10:23:44.404Z,3.4
2018-04-20T10:24:44.834Z,3.4
2018-04-20T10:25:44.399Z,3.5
2018-04-20T10:26:44.403Z,3.2
2018-04-20T10:27:44.440Z,3.4
2018-04-20T10:28:44.605Z,3.4
2018-04-20T10:29:44.860Z,3.2
2018-04-20T10:30:44.909Z,3.4
2018-04-20T10:31:44.885Z,3.2
2018-04-20T10:32:44.518Z,3.4
2018-04-20T10:33:44.899Z,3.2
2018-04-20T10:34:44.429Z,3.0
2018-04-20T10:35:44.889Z,3.3
2018-04-20T10:36:44.611Z,2.9
2018-04-20T10:37:44.448Z,3.3
2018-04-20T10:38:44.667Z,3.3
2018-04-20T10:39:44.901Z,3.3
2018-04-20T10:40:44.909Z,3.2
2018-04-20T10:41:44.600Z,3.3
2018-04-20T10:42:44.865Z,3.4
2018-04-20T10:43:44.491Z,3.3
2018-04-20T10:44:44.682Z,3.2
2018-04-20T10:45:44.478Z,3.2
2018-04-20T10:46:44.436Z,3.0
2018-04-20T10:47:44.949Z,3.1
2018-04-20T10:48:44.917Z,3.2
2018-04-20T10:49:45.787Z,2.9
2018-04-20T10:50:44.444Z,2.8
2018-04-20T10:51:44.642Z,3.1
2018-04-20T10:52:44.485Z,3.0
2018-04-20T10:53:44.946Z,3.1
2018-04-20T10:54:44.956Z,3.0
2018-04-20T10:55:44.663Z,2.7
2018-04-20T10:56:44.948Z,3.0
2018-04-20T10:57:44.952Z,3.2
2018-04-20T10:58:44.918Z,3.1
2018-04-20T10:59:44.671Z,3.1
2018-04-20T11:00:44.655Z,3.2
2018-04-20T11:01:44.508Z,3.0
2018-04-20T11:02:44.900Z,3.0
2018-04-20T11:03:44.733Z,2.9
2018-04-20T11:04:44.693Z,3.0
2018-04-20T11:05:44.483Z,2.8
2018-04-20T11:06:44.666Z,2.9
2018-04-20T11:07:44.971Z,3.1
2018-04-20T11:08:44.702Z,3.0
2018-04-20T11:09:44.930Z,3.0
2018-04-20T11:10:45.010Z,3.1
2018-04-20T11:11:44.949Z,2.9
2018-04-20T11:12:44.890Z,2.9
2018-04-20T11:13:44.930Z,2.8
2018-04-20T11:14:47.081Z,3.1
2018-04-20T11:15:44.732Z,2.5
2018-04-20T11:16:44.683Z,3.1
2018-04-20T11:17:44.701Z,2.9
2018-04-20T11:18:44.957Z,2.8
2018-04-20T11:19:44.506Z,2.6
2018-04-20T11:20:44.916Z,2.9
2018-04-20T11:21:44.667Z,2.8
2018-04-20T11:22:44.951Z,2.9
2018-04-20T11:23:45.022Z,2.9
2018-04-20T11:24:44.661Z,3.1
2018-04-20T11:25:44.955Z,2.9
2018-04-20T11:26:44.977Z,3.0
2018-04-20T11:27:44.684Z,2.7
2018-04-20T11:28:44.546Z,2.8
2018-04-20T11:29:44.529Z,2.7
2018-04-20T11:30:44.721Z,2.8
2018-04-20T11:31:44.552Z,2.7
2018-04-20T11:32:44.709Z,2.7
2018-04-20T11:33:44.744Z,2.8
2018-04-20T11:34:44.562Z,2.8
2018-04-20T11:35:45.010Z,2.8
2018-04-20T11:36:45.010Z,3.0
2018-04-20T11:37:44.567Z,2.9
2018-04-20T11:38:44.545Z,2.9
2018-04-20T11:39:44.593Z,2.7
2018-04-20T11:40:44.562Z,2.8
2018-04-20T11:41:44.570Z,3.0
2018-04-20T11:42:45.023Z,2.8
2018-04-20T11:43:45.027Z,2.7
2018-04-20T11:44:44.647Z,2.7
2018-04-20T11:45:45.045Z,2.7
2018-04-20T11:46:44.598Z,3.0
2018-04-20T11:47:44.560Z,2.8
2018-04-20T11:48:44.604Z,2.5
2018-04-20T11:49:45.023Z,2.8
2018-04-20T11:50:45.660Z,2.9
2018-04-20T11:51:44.740Z,2.8
2018-04-20T11:52:44.989Z,2.8
2018-04-20T11:53:44.857Z,2.5
2018-04-20T11:54:44.994Z,2.7
2018-04-20T11:55:44.742Z,2.8
2018-04-20T11:56:45.070Z,2.7
2018-04-20T11:57:44.782Z,2.9
2018-04-20T11:58:44.605Z,2.9
2018-04-20T11:59:45.081Z,2.8
2018-04-20T12:00:44.608Z,2.7
2018-04-20T12:01:45.050Z,2.7
2018-04-20T12:02:45.046Z,2.7
2018-04-20T12:03:44.768Z,2.9
2018-04-20T12:04:45.054Z,2.6
2018-04-20T12:05:44.603Z,2.7
2018-04-20T12:06:44.617Z,2.7
2018-04-20T12:07:45.004Z,2.6
2018-04-20T12:08:44.784Z,2.7
2018-04-20T12:09:45.062Z,2.5
2018-04-20T12:10:44.641Z,2.9
2018-04-20T12:11:44.607Z,2.6
2018-04-20T12:12:45.004Z,2.7
2018-04-20T12:13:44.790Z,2.7
2018-04-20T12:14:44.797Z,2.7
2018-04-20T12:15:44.831Z,2.5
2018-04-20T12:16:44.639Z,2.6
2018-04-20T12:17:45.120Z,2.6
2018-04-20T12:18:44.600Z,2.6
2018-04-20T12:19:45.088Z,2.7
2018-04-20T12:20:44.624Z,2.7
2018-04-20T12:21:45.099Z,2.6
2018-04-20T12:22:45.055Z,2.5
2018-04-20T12:23:45.081Z,2.6
2018-04-20T12:24:44.839Z,2.7
2018-04-20T12:25:44.792Z,2.6
2018-04-20T12:26:44.824Z,2.6
2018-04-20T12:27:44.802Z,2.8
2018-04-20T12:28:44.843Z,2.5
2018-04-20T12:29:45.101Z,2.5
2018-04-20T12:30:45.104Z,2.9
2018-04-20T12:31:44.810Z,2.6
2018-04-20T12:32:45.075Z,2.7
2018-04-20T12:33:45.197Z,2.6
2018-04-20T12:34:44.677Z,2.6
2018-04-20T12:35:45.075Z,2.4
2018-04-20T12:36:44.834Z,2.6
2018-04-20T12:37:44.625Z,2.7
2018-04-20T12:38:45.059Z,2.5
2018-04-20T12:39:44.814Z,2.6
2018-04-20T12:40:45.143Z,2.8
2018-04-20T12:41:45.134Z,2.4
2018-04-20T12:42:45.111Z,2.5
2018-04-20T12:43:46.166Z,2.8
2018-04-20T12:44:44.874Z,2.9
2018-04-20T12:45:44.699Z,3.2
2018-04-20T12:46:45.162Z,3.2
2018-04-20T12:47:45.186Z,3.3
2018-04-20T12:48:45.092Z,3.2
2018-04-20T12:49:44.857Z,3.2
2018-04-20T12:50:45.167Z,3.2
2018-04-20T12:51:45.485Z,3.5
2018-04-20T12:52:44.739Z,3.5
2018-04-20T12:53:44.898Z,3.4
2018-04-20T12:54:45.200Z,3.2
2018-04-20T12:55:44.722Z,3.5
2018-04-20T12:56:45.110Z,3.4
2018-04-20T12:57:45.085Z,3.3
2018-04-20T12:58:44.725Z,3.2
2018-04-20T12:59:45.219Z,3.5
2018-04-20T13:00:44.749Z,3.1
2018-04-20T13:01:45.132Z,3.1
2018-04-20T13:02:45.229Z,3.4
2018-04-20T13:03:44.692Z,3.2
2018-04-20T13:04:45.125Z,3.0
2018-04-20T13:05:45.203Z,3.2
2018-04-20T13:06:45.221Z,3.2
2018-04-20T13:07:45.152Z,3.1
2018-04-20T13:08:45.178Z,3.1
2018-04-20T13:09:44.711Z,3.2
2018-04-20T13:10:44.707Z,3.2
2018-04-20T13:11:45.171Z,3.1
2018-04-20T13:12:44.731Z,3.4
2018-04-20T13:13:45.206Z,3.3
2018-04-20T13:14:45.178Z,3.0
2018-04-20T13:15:44.945Z,3.1
2018-04-20T13:16:46.043Z,2.9
2018-04-20T13:17:47.702Z,2.9
2018-04-20T13:18:45.267Z,2.9
2018-04-20T13:19:44.958Z,3.0
2018-04-20T13:20:44.737Z,2.8
2018-04-20T13:21:45.133Z,2.9
2018-04-20T13:22:44.787Z,2.9
2018-04-20T13:23:45.251Z,2.4
2018-04-20T13:24:45.181Z,2.6
2018-04-20T13:25:44.946Z,2.7
2018-04-20T13:26:44.986Z,2.5
2018-04-20T13:27:45.218Z,2.8
2018-04-20T13:28:45.196Z,2.7
2018-04-20T13:29:44.803Z,2.9
2018-04-20T13:30:44.938Z,2.6
2018-04-20T13:31:44.761Z,2.8
2018-04-20T13:32:45.136Z,2.7
2018-04-20T13:33:45.225Z,2.6
2018-04-20T13:34:44.926Z,2.7
2018-04-20T13:35:44.932Z,2.5
2018-04-20T13:36:44.956Z,3.0
2018-04-20T13:37:45.204Z,2.4
2018-04-20T13:38:44.787Z,2.5
2018-04-20T13:39:45.009Z,2.8
2018-04-20T13:40:44.763Z,2.8
2018-04-20T13:41:44.959Z,2.6
2018-04-20T13:42:44.827Z,2.6
2018-04-20T13:43:44.808Z,2.7
2018-04-20T13:44:44.811Z,2.8
2018-04-20T13:45:44.973Z,2.7
2018-04-20T13:46:45.285Z,2.5